createdAt,value
2022-10-30T00:02:06.813Z,7.73
2022-10-30T00:07:12.378Z,6.53
2022-10-30T00:12:17.997Z,7.47
2022-10-30T00:17:23.533Z,8.13
2022-10-30T00:22:29.130Z,8.37
2022-10-30T00:27:34.703Z,9.20
2022-10-30T00:32:40.191Z,7.43
2022-10-30T00:37:45.593Z,8.07
2022-10-30T00:42:51.134Z,8.37
2022-10-30T00:48:03.026Z,8.00
2022-10-30T00:53:14.497Z,8.17
2022-10-30T00:58:22.954Z,7.77
2022-10-30T01:03:30.684Z,7.73
2022-10-30T01:08:38.651Z,8.37
2022-10-30T01:13:48.050Z,8.30
2022-10-30T01:19:16.319Z,8.70
2022-10-30T01:24:30.654Z,8.40
2022-10-30T01:29:39.170Z,8.70
2022-10-30T01:34:47.789Z,8.03
2022-10-30T01:39:53.891Z,7.47
2022-10-30T01:44:59.576Z,8.13
2022-10-30T01:50:14.908Z,8.27
2022-10-30T01:56:00.152Z,8.07
2022-10-30T02:01:06.928Z,8.17
2022-10-30T02:06:13.079Z,7.77
2022-10-30T02:11:19.895Z,8.10
2022-10-30T02:16:25.696Z,8.20
2022-10-30T02:21:31.715Z,7.20
2022-10-30T02:26:38.321Z,8.17
2022-10-30T02:31:45.380Z,8.27
2022-10-30T02:36:51.172Z,7.63
2022-10-30T02:41:56.894Z,7.17
2022-10-30T02:47:03.264Z,8.80
2022-10-30T02:52:09.674Z,7.77
2022-10-30T02:57:15.206Z,7.53
2022-10-30T03:02:22.691Z,7.77
2022-10-30T03:07:29.352Z,8.33
2022-10-30T03:12:35.099Z,8.20
2022-10-30T03:22:49.155Z,8.07
2022-10-30T03:27:55.988Z,7.93
2022-10-30T03:33:01.935Z,8.00
2022-10-30T03:38:07.480Z,7.63
2022-10-30T03:43:13.020Z,9.07
2022-10-30T03:48:20.582Z,8.33
2022-10-30T03:53:26.762Z,8.23
2022-10-30T03:58:32.945Z,7.93
2022-10-30T04:03:38.893Z,8.23
2022-10-30T04:08:44.352Z,8.37
2022-10-30T04:13:50.004Z,8.20
2022-10-30T04:18:55.625Z,9.20
2022-10-30T04:24:01.163Z,8.20
2022-10-30T04:29:07.917Z,7.83
2022-10-30T04:34:14.091Z,8.50
2022-10-30T04:39:20.692Z,8.33
2022-10-30T04:44:27.824Z,8.70
2022-10-30T04:49:33.597Z,8.73
2022-10-30T04:54:39.595Z,7.67
2022-10-30T04:59:45.352Z,8.37
2022-10-30T05:04:51.487Z,8.40
2022-10-30T05:09:56.999Z,7.70
2022-10-30T05:15:04.523Z,8.90
2022-10-30T05:20:14.907Z,8.60
2022-10-30T05:25:19.642Z,9.87
2022-10-30T05:30:25.554Z,9.13
2022-10-30T05:35:35.488Z,10.13
2022-10-30T05:40:41.623Z,9.53
2022-10-30T05:45:51.781Z,10.33
2022-10-30T05:50:57.986Z,10.77
2022-10-30T05:56:05.661Z,9.60
2022-10-30T06:01:12.498Z,10.57
2022-10-30T06:06:19.587Z,9.53
2022-10-30T06:11:25.114Z,9.83
2022-10-30T06:21:51.450Z,10.57
2022-10-30T06:27:04.754Z,9.73
2022-10-30T06:32:10.358Z,8.83
2022-10-30T06:37:16.198Z,8.67
2022-10-30T06:42:22.003Z,8.30
2022-10-30T06:47:29.223Z,9.67
2022-10-30T06:52:35.030Z,9.67
2022-10-30T06:57:42.422Z,9.23
2022-10-30T07:03:07.464Z,8.37
2022-10-30T07:08:13.277Z,9.37
2022-10-30T07:13:19.438Z,7.87
2022-10-30T07:18:26.776Z,8.47
2022-10-30T07:23:33.938Z,8.77
2022-10-30T07:28:43.790Z,8.77
2022-10-30T07:33:59.544Z,9.57
2022-10-30T07:39:12.627Z,12.63
2022-10-30T07:44:22.124Z,15.33
2022-10-30T07:49:29.231Z,15.67
2022-10-30T07:54:39.574Z,14.27
2022-10-30T07:59:52.690Z,15.80
2022-10-30T08:05:00.025Z,16.97
2022-10-30T08:10:13.427Z,17.30
2022-10-30T08:15:19.237Z,15.93
2022-10-30T08:20:26.752Z,16.17
2022-10-30T08:25:32.881Z,15.27
2022-10-30T08:30:39.267Z,16.80
2022-10-30T08:35:54.117Z,16.23
2022-10-30T08:41:00.039Z,16.83
2022-10-30T08:46:06.231Z,16.93
2022-10-30T08:51:11.904Z,18.17
2022-10-30T08:56:19.639Z,16.43
2022-10-30T09:01:27.052Z,17.53
2022-10-30T09:06:43.530Z,16.60
2022-10-30T09:11:59.670Z,15.27
2022-10-30T09:17:06.226Z,15.60
2022-10-30T09:22:13.676Z,14.43
2022-10-30T09:27:20.040Z,12.90
2022-10-30T09:32:27.218Z,11.73
2022-10-30T09:37:39.590Z,10.60
2022-10-30T09:42:49.799Z,11.17
2022-10-30T09:48:22.569Z,9.57
2022-10-30T09:53:45.447Z,9.97
2022-10-30T09:59:13.985Z,9.60
2022-10-30T10:04:46.624Z,11.80
2022-10-30T10:09:56.879Z,10.17
2022-10-30T10:15:40.140Z,10.13
2022-10-30T10:20:48.468Z,10.97
2022-10-30T10:25:59.784Z,9.83
2022-10-30T10:31:10.957Z,10.90
2022-10-30T10:36:31.488Z,10.43
2022-10-30T10:41:53.503Z,10.23
2022-10-30T10:47:18.795Z,10.27
2022-10-30T10:52:32.949Z,12.23
2022-10-30T10:57:42.092Z,10.10
2022-10-30T11:03:05.448Z,12.40
2022-10-30T11:08:26.076Z,11.13
2022-10-30T11:13:34.545Z,11.43
2022-10-30T11:18:41.451Z,10.90
2022-10-30T11:23:49.320Z,11.83
2022-10-30T11:29:06.685Z,10.83
2022-10-30T11:34:21.851Z,12.03
2022-10-30T11:39:35.718Z,11.57
2022-10-30T11:44:43.761Z,11.53
2022-10-30T11:50:01.196Z,12.07
2022-10-30T11:55:30.618Z,11.03
2022-10-30T12:00:41.045Z,11.17
2022-10-30T12:05:50.269Z,11.80
2022-10-30T12:11:00.187Z,11.33
2022-10-30T12:16:11.482Z,11.67
2022-10-30T12:21:20.349Z,13.37
2022-10-30T12:26:27.062Z,13.10
2022-10-30T12:31:44.449Z,13.30
2022-10-30T12:36:58.742Z,13.40
2022-10-30T12:42:16.559Z,11.53
2022-10-30T12:47:41.776Z,12.33
2022-10-30T12:53:02.404Z,12.93
2022-10-30T12:58:29.008Z,12.67
2022-10-30T13:04:03.225Z,12.40
2022-10-30T13:09:17.721Z,12.77
2022-10-30T13:14:28.431Z,12.10
2022-10-30T13:19:34.588Z,10.70
2022-10-30T13:24:45.864Z,10.67
2022-10-30T13:30:17.111Z,10.77
2022-10-30T13:35:41.465Z,10.77
2022-10-30T13:40:59.021Z,11.07
2022-10-30T13:46:19.782Z,10.50
2022-10-30T13:51:40.736Z,10.07
2022-10-30T13:56:49.055Z,9.47
2022-10-30T14:02:06.931Z,9.07
2022-10-30T14:07:24.402Z,8.77
2022-10-30T14:12:53.577Z,8.57
2022-10-30T14:18:17.343Z,9.30
2022-10-30T14:23:25.874Z,9.20
2022-10-30T14:28:45.967Z,9.43
2022-10-30T14:33:53.396Z,9.03
2022-10-30T14:39:13.880Z,9.93
2022-10-30T14:44:22.329Z,9.30
2022-10-30T14:49:51.526Z,10.00
2022-10-30T14:55:28.764Z,9.00
2022-10-30T15:00:40.209Z,9.20
2022-10-30T15:05:51.518Z,9.27
2022-10-30T15:11:17.569Z,9.73
2022-10-30T15:16:22.250Z,10.00
2022-10-30T15:21:29.870Z,9.03
2022-10-30T15:26:40.574Z,9.03
2022-10-30T15:31:46.188Z,9.17
2022-10-30T15:36:51.663Z,9.30
2022-10-30T15:42:00.502Z,8.60
2022-10-30T15:47:08.675Z,9.97
2022-10-30T15:52:18.135Z,10.00
2022-10-30T15:58:03.917Z,9.27
2022-10-30T16:02:40.913Z,9.53
2022-10-30T16:07:48.285Z,9.33
2022-10-30T16:12:57.442Z,9.90
2022-10-30T16:18:17.927Z,9.97
2022-10-30T16:23:24.842Z,9.87
2022-10-30T16:28:38.389Z,10.53
2022-10-30T16:33:47.693Z,9.23
2022-10-30T16:38:53.628Z,11.00
2022-10-30T16:44:17.584Z,8.83
2022-10-30T16:49:28.727Z,10.67
2022-10-30T16:54:39.595Z,10.50
2022-10-30T16:59:52.040Z,9.33
2022-10-30T17:05:03.459Z,9.60
2022-10-30T17:10:28.329Z,10.13
2022-10-30T17:15:34.146Z,9.73
2022-10-30T17:20:39.986Z,10.97
2022-10-30T17:25:45.631Z,11.43
2022-10-30T17:30:51.477Z,11.60
2022-10-30T17:35:57.324Z,9.73
2022-10-30T17:41:03.694Z,10.03
2022-10-30T17:46:09.835Z,9.33
2022-10-30T17:51:16.403Z,9.70
2022-10-30T17:56:48.564Z,10.80
2022-10-30T18:01:54.133Z,9.20
2022-10-30T18:06:59.703Z,10.17
2022-10-30T18:12:06.952Z,9.37
2022-10-30T18:17:12.493Z,10.00
2022-10-30T18:22:17.949Z,10.50
2022-10-30T18:27:23.343Z,10.27
2022-10-30T18:32:28.894Z,9.33
2022-10-30T18:37:34.359Z,9.70
2022-10-30T18:42:40.035Z,9.87
2022-10-30T18:47:45.964Z,9.80
2022-10-30T18:52:51.965Z,9.70
2022-10-30T18:57:57.755Z,9.70
2022-10-30T19:03:04.669Z,9.77
2022-10-30T19:08:11.951Z,10.47
2022-10-30T19:13:22.622Z,9.90
2022-10-30T19:18:31.319Z,9.53
2022-10-30T19:23:36.931Z,9.77
2022-10-30T19:28:43.028Z,9.07
2022-10-30T19:33:53.029Z,9.20
2022-10-30T19:39:05.734Z,9.47
2022-10-30T19:44:08.680Z,10.40
2022-10-30T19:49:17.266Z,10.33
2022-10-30T19:54:22.731Z,10.47
2022-10-30T19:59:28.277Z,10.50
2022-10-30T20:04:33.761Z,9.83
2022-10-30T20:09:39.245Z,9.47
2022-10-30T20:14:44.784Z,9.87
2022-10-30T20:19:50.598Z,10.53
2022-10-30T20:24:56.090Z,10.70
2022-10-30T20:30:04.208Z,10.90
2022-10-30T20:35:11.322Z,9.97
2022-10-30T20:40:18.295Z,10.13
2022-10-30T20:45:26.950Z,10.37
2022-10-30T20:50:32.488Z,10.57
2022-10-30T20:55:38.154Z,9.97
2022-10-30T21:00:43.993Z,9.47
2022-10-30T21:05:52.457Z,10.63
2022-10-30T21:11:03.211Z,10.77
2022-10-30T21:16:10.351Z,9.97
2022-10-30T21:21:20.307Z,9.67
2022-10-30T21:26:24.980Z,10.60
2022-10-30T21:31:30.580Z,10.53
2022-10-30T21:36:36.137Z,10.57
2022-10-30T21:41:41.589Z,9.90
2022-10-30T21:46:47.130Z,10.27
2022-10-30T21:51:52.546Z,10.97
2022-10-30T21:56:58.862Z,9.07
2022-10-30T22:02:04.382Z,9.53
2022-10-30T22:07:09.999Z,9.87
2022-10-30T22:12:15.493Z,10.30
2022-10-30T22:17:21.362Z,10.70
2022-10-30T22:22:26.900Z,10.37
2022-10-30T22:27:55.296Z,8.80
2022-10-30T22:33:01.215Z,10.30
2022-10-30T22:38:06.974Z,10.20
2022-10-30T22:43:12.507Z,10.33
2022-10-30T22:48:17.954Z,10.63
2022-10-30T22:53:23.424Z,10.83
2022-10-30T22:58:30.844Z,10.13
2022-10-30T23:03:36.470Z,10.73
2022-10-30T23:08:42.440Z,10.67
2022-10-30T23:13:49.263Z,11.20
2022-10-30T23:19:00.507Z,11.03
2022-10-30T23:24:06.929Z,10.50
2022-10-30T23:29:13.262Z,10.77
2022-10-30T23:34:19.014Z,10.17
2022-10-30T23:39:24.617Z,11.70
2022-10-30T23:44:30.081Z,10.67
2022-10-30T23:49:35.994Z,10.83
2022-10-30T23:54:41.532Z,10.47
2022-10-30T23:59:47.904Z,10.53
